Time;durP1;ratioP1;P1;durP2;ratioP2;P2;SDS_P1;SDS_P2;PMS_P1;PMS_P2;Temp;Humidity;BMP_temperature;BMP_pressure;BME280_temperature;BME280_humidity;BME280_pressure;Samples;Min_cycle;Max_cycle;Signal;HPM_P1;HPM_P2
2023/09/04 00:01:26;;;;;;;4.47;2.47;;;12.70;99.90;;;;;;5037171;28;20189;-84
2023/09/04 00:03:54;;;;;;;3.00;2.25;;;12.60;99.90;;;;;;5036790;28;20197;-84
2023/09/04 00:06:21;;;;;;;5.68;2.67;;;12.70;99.90;;;;;;5039456;28;20193;-83
2023/09/04 00:08:49;;;;;;;6.47;2.65;;;12.70;99.90;;;;;;5029223;28;20194;-85
2023/09/04 00:11:17;;;;;;;8.35;2.72;;;12.70;99.90;;;;;;5038074;28;20262;-86
2023/09/04 00:13:44;;;;;;;8.43;2.50;;;12.70;99.90;;;;;;5036515;28;20237;-84
2023/09/04 00:16:12;;;;;;;5.65;1.98;;;12.60;99.90;;;;;;5034763;28;20288;-85
2023/09/04 00:18:41;;;;;;;3.70;2.50;;;12.40;99.90;;;;;;5035635;28;20232;-84
2023/09/04 00:21:09;;;;;;;5.07;2.38;;;12.40;99.90;;;;;;5037592;27;20197;-86
2023/09/04 00:23:36;;;;;;;7.65;2.80;;;12.30;99.90;;;;;;5038537;28;20246;-85
2023/09/04 00:26:04;;;;;;;4.82;2.45;;;12.20;99.90;;;;;;5038240;28;20554;-84
2023/09/04 00:28:32;;;;;;;3.22;2.25;;;12.20;99.90;;;;;;5036871;28;20189;-83
2023/09/04 00:30:59;;;;;;;4.75;2.67;;;12.30;99.90;;;;;;5034418;27;20216;-85
2023/09/04 00:33:28;;;;;;;4.93;2.00;;;12.30;99.90;;;;;;5034438;28;20222;-85
2023/09/04 00:35:55;;;;;;;3.83;2.17;;;12.40;99.90;;;;;;5035710;28;20232;-85
2023/09/04 00:38:22;;;;;;;6.93;2.08;;;12.40;99.90;;;;;;5034779;28;20706;-84
2023/09/04 00:40:51;;;;;;;7.75;2.47;;;12.30;99.90;;;;;;5025976;28;20263;-84
2023/09/04 00:43:18;;;;;;;5.07;2.65;;;12.30;99.90;;;;;;5035406;28;20205;-85
2023/09/04 00:45:46;;;;;;;7.82;2.22;;;12.30;99.90;;;;;;5038200;28;20181;-84
2023/09/04 00:48:14;;;;;;;8.10;2.50;;;12.00;99.90;;;;;;5037509;28;20189;-84
2023/09/04 00:50:43;;;;;;;5.72;2.40;;;12.00;99.90;;;;;;5039908;28;20213;-84
2023/09/04 00:53:11;;;;;;;9.65;2.47;;;11.80;99.90;;;;;;5032846;28;20217;-84
2023/09/04 00:55:39;;;;;;;5.95;2.53;;;11.80;99.90;;;;;;5035249;28;20196;-84
2023/09/04 00:58:06;;;;;;;5.03;2.83;;;11.90;99.90;;;;;;5032561;28;20630;-84
2023/09/04 01:00:34;;;;;;;2.80;2.03;;;11.80;99.90;;;;;;5036073;28;20281;-84
2023/09/04 01:03:03;;;;;;;8.38;2.70;;;11.70;99.90;;;;;;5032170;28;20280;-84
2023/09/04 01:05:32;;;;;;;3.75;2.25;;;11.80;99.90;;;;;;5032267;28;20186;-84
2023/09/04 01:08:00;;;;;;;12.57;2.78;;;11.90;99.90;;;;;;5026127;28;20186;-84
2023/09/04 01:10:35;;;;;;;6.63;2.40;;;11.80;99.90;;;;;;5033911;28;20280;-83
2023/09/04 01:13:21;;;;;;;6.55;2.58;;;11.90;99.90;;;;;;5045632;28;20699;-84
2023/09/04 01:15:51;;;;;;;4.85;3.00;;;11.90;99.90;;;;;;5034939;28;20189;-84
2023/09/04 01:18:19;;;;;;;5.10;2.63;;;11.70;99.90;;;;;;5033347;28;20209;-84
2023/09/04 01:21:03;;;;;;;9.98;2.90;;;11.80;99.90;;;;;;5037948;28;20735;-84
2023/09/04 01:23:32;;;;;;;6.78;2.50;;;11.80;99.90;;;;;;5034595;28;20271;-84
2023/09/04 01:26:13;;;;;;;6.25;2.83;;;11.70;99.90;;;;;;5032366;28;20302;-83
2023/09/04 01:28:49;;;;;;;8.55;2.05;;;11.60;99.90;;;;;;5038561;28;20193;-83
2023/09/04 01:31:54;;;;;;;6.35;2.67;;;11.70;99.90;;;;;;5027190;28;20604;-85
2023/09/04 01:34:26;;;;;;;7.10;2.45;;;11.60;99.90;;;;;;5022498;28;20209;-83
2023/09/04 01:36:57;;;;;;;5.45;2.75;;;11.70;99.90;;;;;;5034926;28;20922;-83
2023/09/04 01:39:26;;;;;;;5.53;3.08;;;11.70;99.90;;;;;;5030330;28;20201;-83
2023/09/04 01:41:55;;;;;;;4.00;2.60;;;11.50;99.90;;;;;;5036802;27;20715;-83
2023/09/04 01:44:22;;;;;;;14.30;3.17;;;11.40;99.90;;;;;;5036350;28;20188;-84
2023/09/04 01:46:50;;;;;;;4.50;2.50;;;11.30;99.90;;;;;;5034986;28;20254;-83
2023/09/04 01:49:18;;;;;;;7.28;2.38;;;11.50;99.90;;;;;;5034909;28;20189;-84
2023/09/04 01:51:45;;;;;;;6.50;2.60;;;11.60;99.90;;;;;;5029787;28;20641;-84
2023/09/04 01:54:13;;;;;;;5.53;2.85;;;11.70;99.90;;;;;;5037662;28;20222;-84
2023/09/04 01:56:40;;;;;;;6.03;2.90;;;11.60;99.90;;;;;;5022042;28;20206;-82
2023/09/04 01:59:08;;;;;;;5.28;2.90;;;11.40;99.90;;;;;;5030536;28;20259;-84
2023/09/04 02:01:35;;;;;;;6.05;2.83;;;11.40;99.90;;;;;;5038505;28;20238;-84
2023/09/04 02:04:03;;;;;;;5.80;3.13;;;11.40;99.90;;;;;;5037963;28;20192;-84
2023/09/04 02:06:31;;;;;;;6.72;2.85;;;11.30;99.90;;;;;;5038537;28;20192;-84
2023/09/04 02:08:59;;;;;;;10.50;3.83;;;11.40;99.90;;;;;;5033266;28;20190;-84
2023/09/04 02:11:26;;;;;;;4.60;2.70;;;11.40;99.90;;;;;;5038294;28;20188;-85
2023/09/04 02:13:54;;;;;;;8.60;3.00;;;11.50;99.90;;;;;;5036372;28;20714;-85
2023/09/04 02:16:24;;;;;;;6.13;3.05;;;11.60;99.90;;;;;;5037824;28;20282;-85
2023/09/04 02:18:53;;;;;;;4.40;2.67;;;11.80;99.90;;;;;;5035826;28;20734;-84
2023/09/04 02:21:20;;;;;;;7.40;3.42;;;11.80;99.90;;;;;;5039610;28;20185;-85
2023/09/04 02:23:48;;;;;;;7.65;3.28;;;11.90;99.90;;;;;;5037031;28;20190;-85
2023/09/04 02:26:15;;;;;;;8.55;3.15;;;12.00;99.90;;;;;;5036422;28;20184;-85
2023/09/04 02:28:43;;;;;;;7.75;3.33;;;12.00;99.90;;;;;;5037861;28;20668;-84
2023/09/04 02:31:13;;;;;;;9.00;3.00;;;12.00;99.90;;;;;;5036937;28;20182;-85
2023/09/04 02:33:41;;;;;;;10.77;3.78;;;12.00;99.90;;;;;;5037765;28;20759;-84
2023/09/04 02:36:08;;;;;;;7.68;3.78;;;11.90;99.90;;;;;;5035508;28;20197;-85
2023/09/04 02:38:36;;;;;;;6.88;3.60;;;11.90;99.90;;;;;;5059168;28;20212;-84
2023/09/04 02:41:04;;;;;;;6.88;3.30;;;11.90;99.90;;;;;;5030882;28;20214;-85
2023/09/04 02:43:32;;;;;;;7.05;4.30;;;11.80;99.90;;;;;;5040409;28;20766;-85
2023/09/04 02:46:00;;;;;;;7.15;3.42;;;11.80;99.90;;;;;;5041306;28;20196;-84
2023/09/04 02:48:27;;;;;;;6.22;3.63;;;11.80;99.90;;;;;;5035044;28;20269;-85
2023/09/04 02:50:58;;;;;;;7.25;3.42;;;11.80;99.90;;;;;;5040356;28;20189;-84
2023/09/04 02:53:29;;;;;;;7.13;3.90;;;11.70;99.90;;;;;;5029322;28;20280;-84
2023/09/04 02:55:56;;;;;;;5.40;3.30;;;11.70;99.90;;;;;;5039425;28;20193;-84
2023/09/04 02:58:24;;;;;;;7.07;3.50;;;11.70;99.90;;;;;;5037655;28;20680;-83
2023/09/04 03:00:52;;;;;;;6.63;3.80;;;11.40;99.90;;;;;;5030604;28;20618;-84
2023/09/04 03:03:20;;;;;;;7.95;3.70;;;11.20;99.90;;;;;;5036146;28;20193;-84
2023/09/04 03:05:47;;;;;;;9.20;4.00;;;11.30;99.90;;;;;;5032123;28;20211;-85
2023/09/04 03:08:16;;;;;;;3.80;2.75;;;11.20;99.90;;;;;;5033749;28;20632;-84
2023/09/04 03:10:44;;;;;;;6.90;2.83;;;11.30;99.90;;;;;;5035886;28;20804;-85
2023/09/04 03:13:11;;;;;;;5.15;2.55;;;11.40;99.90;;;;;;5041015;28;20232;-85
2023/09/04 03:15:39;;;;;;;4.45;3.10;;;11.30;99.90;;;;;;5039452;28;20734;-85
2023/09/04 03:18:09;;;;;;;4.63;3.47;;;11.20;99.90;;;;;;5034680;28;20201;-84
2023/09/04 03:20:37;;;;;;;5.78;3.33;;;11.30;99.90;;;;;;5039542;28;20197;-85
2023/09/04 03:23:05;;;;;;;4.88;3.55;;;11.20;99.90;;;;;;5033033;28;20193;-85
2023/09/04 03:25:35;;;;;;;3.85;2.80;;;11.10;99.90;;;;;;5037387;28;20619;-85
2023/09/04 03:28:03;;;;;;;4.22;2.70;;;11.30;99.90;;;;;;5034956;28;20190;-85
2023/09/04 03:30:34;;;;;;;4.47;3.05;;;11.30;99.90;;;;;;5035526;28;20615;-85
2023/09/04 03:33:04;;;;;;;7.28;3.20;;;11.40;99.90;;;;;;5034859;28;20205;-84
2023/09/04 03:35:31;;;;;;;7.47;3.35;;;11.20;99.90;;;;;;5036964;28;20185;-86
2023/09/04 03:37:59;;;;;;;4.43;2.83;;;11.10;99.90;;;;;;5026627;28;20243;-84
2023/09/04 03:40:29;;;;;;;4.85;3.00;;;11.10;99.90;;;;;;5037757;28;20198;-84
2023/09/04 03:42:57;;;;;;;4.30;2.85;;;11.00;99.90;;;;;;5039631;27;20249;-84
2023/09/04 03:45:32;;;;;;;6.00;3.22;;;11.00;99.90;;;;;;5038936;28;20212;-84
2023/09/04 03:48:01;;;;;;;5.57;2.72;;;10.80;99.90;;;;;;5038846;27;20181;-84
2023/09/04 03:50:29;;;;;;;8.68;3.70;;;10.70;99.90;;;;;;5050624;28;20193;-84
2023/09/04 03:52:56;;;;;;;4.85;3.53;;;10.70;99.90;;;;;;5039520;28;20185;-84
2023/09/04 03:55:25;;;;;;;4.65;2.90;;;10.60;99.90;;;;;;5036170;28;20277;-84
2023/09/04 03:57:52;;;;;;;6.90;3.90;;;10.50;99.90;;;;;;5031030;28;20285;-84
2023/09/04 04:00:22;;;;;;;6.07;3.50;;;10.50;99.90;;;;;;5035398;28;20205;-85
2023/09/04 04:02:51;;;;;;;8.13;3.78;;;10.60;99.90;;;;;;5033755;28;20282;-84
2023/09/04 04:05:20;;;;;;;4.47;3.30;;;10.60;99.90;;;;;;5034898;28;20198;-84
2023/09/04 04:07:48;;;;;;;8.55;3.60;;;10.60;99.90;;;;;;5032772;28;20178;-84
2023/09/04 04:10:19;;;;;;;5.55;3.25;;;10.80;99.90;;;;;;5033401;28;20205;-84
2023/09/04 04:12:51;;;;;;;5.63;3.40;;;10.70;99.90;;;;;;5039320;28;20233;-85
2023/09/04 04:15:19;;;;;;;4.75;3.40;;;10.70;99.90;;;;;;5036087;28;20193;-84
2023/09/04 04:17:47;;;;;;;7.05;3.72;;;10.70;99.90;;;;;;5031422;28;20194;-86
2023/09/04 04:20:15;;;;;;;7.20;3.53;;;10.80;99.90;;;;;;5034609;28;20228;-84
2023/09/04 04:22:42;;;;;;;4.97;3.40;;;10.80;99.90;;;;;;5043215;28;20618;-85
2023/09/04 04:25:10;;;;;;;6.97;3.42;;;10.80;99.90;;;;;;5037508;28;20718;-84
2023/09/04 04:27:44;;;;;;;5.57;3.30;;;10.90;99.90;;;;;;5036360;28;20197;-85
2023/09/04 04:30:12;;;;;;;6.38;2.90;;;10.90;99.90;;;;;;5036982;28;20194;-85
2023/09/04 04:32:40;;;;;;;4.97;3.33;;;11.10;99.90;;;;;;5049620;28;20190;-85
2023/09/04 04:35:08;;;;;;;5.32;2.75;;;11.20;99.90;;;;;;5036542;27;20182;-84
2023/09/04 04:37:36;;;;;;;4.10;2.90;;;11.20;99.90;;;;;;5025976;28;20660;-85
2023/09/04 04:40:06;;;;;;;3.53;2.40;;;11.30;99.90;;;;;;5038228;28;20208;-85
2023/09/04 04:42:35;;;;;;;4.22;2.80;;;11.40;99.90;;;;;;5030307;28;21178;-85
2023/09/04 04:45:03;;;;;;;3.85;2.80;;;11.50;99.90;;;;;;5034245;28;20190;-85
2023/09/04 04:47:30;;;;;;;6.40;2.67;;;11.50;99.90;;;;;;5036034;28;20188;-84
2023/09/04 04:49:58;;;;;;;3.13;2.25;;;11.50;99.90;;;;;;5019685;28;20816;-84
2023/09/04 04:52:26;;;;;;;5.70;2.78;;;11.60;99.90;;;;;;5033571;28;20204;-85
2023/09/04 04:54:53;;;;;;;5.43;2.80;;;11.50;99.90;;;;;;5030534;28;20186;-84
2023/09/04 04:57:21;;;;;;;4.00;2.63;;;11.50;99.90;;;;;;5034792;28;20224;-85
2023/09/04 04:59:49;;;;;;;4.28;2.63;;;11.50;99.90;;;;;;5039047;28;20233;-84
2023/09/04 05:02:17;;;;;;;4.25;2.80;;;11.50;99.90;;;;;;5034211;28;20182;-84
2023/09/04 05:04:45;;;;;;;5.10;2.90;;;11.50;99.90;;;;;;5037350;27;20185;-84
2023/09/04 05:07:15;;;;;;;5.78;3.30;;;11.50;99.90;;;;;;5033437;28;20655;-85
2023/09/04 05:09:43;;;;;;;4.38;2.63;;;11.60;99.90;;;;;;5015322;28;20197;-85
2023/09/04 05:12:11;;;;;;;5.95;3.15;;;11.60;99.90;;;;;;5037327;28;20609;-85
2023/09/04 05:14:38;;;;;;;3.97;2.70;;;11.70;99.90;;;;;;5017799;28;20208;-85
2023/09/04 05:17:06;;;;;;;3.20;2.50;;;11.70;99.90;;;;;;5033448;28;20207;-85
2023/09/04 05:19:34;;;;;;;5.38;3.40;;;11.70;99.90;;;;;;5020989;28;20231;-85
2023/09/04 05:22:01;;;;;;;5.40;3.60;;;11.80;99.90;;;;;;5031624;28;20194;-85
2023/09/04 05:24:29;;;;;;;4.82;3.17;;;11.80;99.90;;;;;;5029783;28;20644;-84
2023/09/04 05:26:56;;;;;;;5.47;3.00;;;11.80;99.90;;;;;;5034808;28;20209;-83
2023/09/04 05:29:24;;;;;;;4.88;3.45;;;11.90;99.90;;;;;;5015096;28;20194;-85
2023/09/04 05:31:52;;;;;;;5.97;3.10;;;11.90;99.90;;;;;;5032292;28;20222;-84
2023/09/04 05:34:19;;;;;;;4.05;3.10;;;11.90;99.90;;;;;;5044467;28;20202;-83
2023/09/04 05:36:47;;;;;;;5.55;3.30;;;12.00;99.90;;;;;;5039082;28;20597;-84
2023/09/04 05:39:14;;;;;;;5.88;3.10;;;12.00;99.90;;;;;;5035387;28;20293;-84
2023/09/04 05:41:42;;;;;;;4.32;2.88;;;12.00;99.90;;;;;;5039886;28;20220;-84
2023/09/04 05:44:10;;;;;;;4.78;3.55;;;12.00;99.90;;;;;;5037200;28;20186;-83
2023/09/04 05:46:37;;;;;;;4.05;3.08;;;12.00;99.90;;;;;;5035433;28;20193;-84
2023/09/04 05:49:05;;;;;;;4.85;3.45;;;12.00;99.90;;;;;;5038245;28;20236;-84
2023/09/04 05:51:33;;;;;;;4.82;3.15;;;12.10;99.90;;;;;;5038046;28;20272;-85
2023/09/04 05:54:00;;;;;;;7.07;3.35;;;12.10;99.90;;;;;;5039967;28;20194;-84
2023/09/04 05:56:27;;;;;;;17.65;5.80;;;12.10;99.90;;;;;;5041641;28;20185;-85
2023/09/04 05:58:56;;;;;;;15.82;8.40;;;12.20;99.90;;;;;;5040367;28;20201;-84
2023/09/04 06:01:24;;;;;;;24.10;12.18;;;12.20;99.90;;;;;;5038023;28;20181;-85
2023/09/04 06:03:52;;;;;;;27.95;13.25;;;12.20;99.90;;;;;;5034869;28;20190;-84
2023/09/04 06:06:20;;;;;;;28.25;13.80;;;12.20;99.90;;;;;;5045481;28;20182;-85
2023/09/04 06:08:48;;;;;;;25.27;13.07;;;12.20;99.90;;;;;;5031381;28;20187;-85
2023/09/04 06:11:16;;;;;;;26.27;11.55;;;12.20;99.90;;;;;;5040369;27;20195;-85
2023/09/04 06:13:43;;;;;;;29.73;10.73;;;12.30;99.90;;;;;;5037885;28;20304;-84
2023/09/04 06:16:13;;;;;;;19.98;11.02;;;12.30;99.90;;;;;;5034436;28;20240;-84
2023/09/04 06:18:41;;;;;;;20.15;12.18;;;12.30;99.90;;;;;;5038409;28;20218;-85
2023/09/04 06:21:08;;;;;;;19.15;10.43;;;12.40;99.90;;;;;;5038269;28;20189;-84
2023/09/04 06:23:36;;;;;;;25.63;12.45;;;12.50;99.90;;;;;;5024894;28;20196;-83
2023/09/04 06:26:07;;;;;;;21.27;11.68;;;12.50;99.90;;;;;;5034271;28;20580;-85
2023/09/04 06:28:35;;;;;;;21.83;12.13;;;12.50;99.90;;;;;;5034680;28;20651;-84
2023/09/04 06:31:03;;;;;;;17.52;10.35;;;12.50;99.90;;;;;;5121892;27;20190;-85
2023/09/04 06:33:34;;;;;;;20.58;11.20;;;12.50;99.90;;;;;;5039814;28;20189;-84
2023/09/04 06:36:01;;;;;;;23.73;12.18;;;12.60;99.90;;;;;;5036518;28;20198;-84
2023/09/04 06:38:28;;;;;;;22.45;13.27;;;12.60;99.90;;;;;;5033264;28;20616;-84
2023/09/04 06:40:59;;;;;;;20.95;12.38;;;12.70;99.90;;;;;;5030460;28;20284;-85
2023/09/04 06:43:28;;;;;;;16.90;11.48;;;12.70;99.90;;;;;;5038904;28;20189;-84
2023/09/04 06:45:55;;;;;;;21.55;12.63;;;12.70;99.90;;;;;;5040065;28;20190;-84
2023/09/04 06:48:23;;;;;;;20.80;11.65;;;12.80;99.90;;;;;;5035170;28;20186;-84
2023/09/04 06:50:51;;;;;;;18.67;11.10;;;12.70;99.90;;;;;;5024701;28;20739;-84
2023/09/04 06:53:19;;;;;;;22.17;12.25;;;12.80;99.90;;;;;;5127313;27;20663;-84
2023/09/04 06:55:49;;;;;;;15.02;10.00;;;12.80;99.90;;;;;;5034555;28;20209;-85
2023/09/04 06:58:17;;;;;;;13.52;9.48;;;12.80;99.90;;;;;;5046957;28;20193;-84
2023/09/04 07:00:45;;;;;;;18.50;10.52;;;12.80;99.90;;;;;;5041459;28;20202;-85
2023/09/04 07:03:12;;;;;;;15.45;10.00;;;12.90;99.90;;;;;;5034124;28;20197;-84
2023/09/04 07:05:41;;;;;;;14.77;10.20;;;12.90;99.90;;;;;;5039715;28;20598;-84
2023/09/04 07:08:08;;;;;;;17.02;10.10;;;13.00;99.90;;;;;;5033002;28;20297;-85
2023/09/04 07:10:36;;;;;;;12.38;8.23;;;13.10;99.90;;;;;;5036476;28;20756;-85
2023/09/04 07:13:04;;;;;;;14.85;9.18;;;13.10;99.90;;;;;;5041584;28;20232;-85
2023/09/04 07:15:31;;;;;;;14.15;9.77;;;13.20;99.90;;;;;;5041034;28;20730;-85
2023/09/04 07:17:59;;;;;;;8.82;6.00;;;13.30;99.90;;;;;;5041328;28;20185;-85
2023/09/04 07:20:28;;;;;;;8.88;6.13;;;13.40;99.90;;;;;;5036217;28;20316;-84
2023/09/04 07:22:56;;;;;;;9.13;6.03;;;13.50;99.90;;;;;;5033676;28;20661;-84
2023/09/04 07:25:40;;;;;;;10.10;6.53;;;13.60;99.90;;;;;;5029467;28;20297;-84
2023/09/04 07:28:08;;;;;;;10.00;5.85;;;13.60;99.90;;;;;;5037264;28;20188;-84
2023/09/04 07:30:35;;;;;;;10.80;6.00;;;13.70;99.90;;;;;;5036840;28;20752;-84
2023/09/04 07:33:03;;;;;;;9.07;6.47;;;13.70;99.90;;;;;;5038542;28;20190;-83
2023/09/04 07:35:31;;;;;;;8.88;5.88;;;13.70;99.90;;;;;;5037305;28;20190;-84
2023/09/04 07:37:59;;;;;;;8.20;6.18;;;13.70;99.90;;;;;;5033267;28;20675;-84
2023/09/04 07:40:27;;;;;;;9.57;5.43;;;13.90;99.90;;;;;;5031363;28;20204;-84
2023/09/04 07:42:54;;;;;;;9.25;5.63;;;13.90;99.90;;;;;;5033216;27;20187;-84
2023/09/04 07:45:24;;;;;;;10.18;6.32;;;13.90;99.90;;;;;;5034970;28;20633;-84
2023/09/04 07:47:51;;;;;;;10.85;6.90;;;14.00;99.90;;;;;;5021742;28;20202;-85
2023/09/04 07:50:19;;;;;;;10.18;5.60;;;14.10;99.90;;;;;;5042394;27;20198;-84
2023/09/04 07:52:47;;;;;;;8.00;5.78;;;14.20;99.90;;;;;;5028985;28;20182;-84
2023/09/04 07:55:14;;;;;;;8.93;5.50;;;14.20;99.90;;;;;;5031975;28;20722;-84
2023/09/04 07:57:43;;;;;;;7.75;5.47;;;14.20;99.90;;;;;;5035899;28;20997;-84
2023/09/04 08:00:11;;;;;;;7.03;4.72;;;14.30;99.90;;;;;;5037979;28;20747;-83
2023/09/04 08:02:39;;;;;;;7.00;4.40;;;14.40;99.90;;;;;;5033560;28;20656;-84
2023/09/04 08:05:07;;;;;;;7.15;4.78;;;14.40;99.90;;;;;;5035375;28;20179;-83
2023/09/04 08:07:34;;;;;;;11.77;4.35;;;14.40;99.90;;;;;;5040228;28;20727;-83
2023/09/04 08:10:02;;;;;;;8.55;4.10;;;14.50;99.90;;;;;;5036942;28;20599;-83
2023/09/04 08:12:29;;;;;;;4.47;3.58;;;14.40;99.90;;;;;;5039835;28;20233;-83
2023/09/04 08:14:57;;;;;;;7.07;4.07;;;14.40;99.90;;;;;;5035846;28;20185;-83
2023/09/04 08:17:26;;;;;;;8.10;4.20;;;14.30;99.90;;;;;;5035388;28;20264;-82
2023/09/04 08:19:53;;;;;;;6.43;4.05;;;14.30;99.90;;;;;;5033036;28;20675;-83
2023/09/04 08:22:21;;;;;;;8.23;4.65;;;14.60;99.90;;;;;;5035930;28;20219;-83
2023/09/04 08:24:50;;;;;;;4.78;3.72;;;14.80;99.90;;;;;;5035429;28;20186;-83
2023/09/04 08:27:18;;;;;;;5.20;3.45;;;14.70;99.90;;;;;;5031645;28;20263;-83
2023/09/04 08:29:46;;;;;;;4.68;3.58;;;14.60;99.90;;;;;;5036175;28;20222;-84
2023/09/04 08:32:13;;;;;;;5.30;3.88;;;14.50;99.90;;;;;;5035436;28;20233;-83
2023/09/04 08:34:41;;;;;;;4.75;3.50;;;14.30;99.90;;;;;;5037381;28;20633;-83
2023/09/04 08:37:09;;;;;;;6.38;3.67;;;14.30;99.90;;;;;;5032947;28;20198;-83
2023/09/04 08:39:36;;;;;;;4.97;3.53;;;14.40;99.90;;;;;;5026942;28;20220;-83
2023/09/04 08:42:07;;;;;;;6.72;3.78;;;14.60;99.90;;;;;;5035755;28;20757;-84
2023/09/04 08:44:36;;;;;;;6.70;3.58;;;14.80;99.90;;;;;;5033585;28;20699;-83
2023/09/04 08:47:06;;;;;;;8.85;3.88;;;15.00;99.90;;;;;;5033737;28;20190;-84
2023/09/04 08:49:34;;;;;;;6.25;4.28;;;15.10;99.90;;;;;;5032255;28;20188;-83
2023/09/04 08:52:03;;;;;;;7.78;3.78;;;15.20;99.90;;;;;;5037199;28;20201;-83
2023/09/04 08:54:33;;;;;;;4.65;3.40;;;15.10;99.90;;;;;;5032250;27;20186;-84
2023/09/04 08:57:01;;;;;;;5.70;3.67;;;15.20;99.90;;;;;;5039183;28;20240;-84
2023/09/04 08:59:28;;;;;;;5.47;3.35;;;15.20;99.90;;;;;;5035284;28;20185;-84
2023/09/04 09:01:57;;;;;;;4.43;3.42;;;15.40;99.90;;;;;;5033939;28;20192;-83
2023/09/04 09:04:25;;;;;;;4.75;3.47;;;15.30;99.90;;;;;;5042760;28;20556;-84
2023/09/04 09:06:53;;;;;;;6.13;3.55;;;15.30;99.90;;;;;;5038194;28;20194;-84
2023/09/04 09:09:22;;;;;;;7.25;3.58;;;15.30;99.90;;;;;;5043208;28;20549;-83
2023/09/04 09:11:53;;;;;;;6.85;3.28;;;15.50;99.90;;;;;;5039279;28;20265;-84
2023/09/04 09:14:26;;;;;;;6.43;3.60;;;15.50;99.90;;;;;;5038969;28;20217;-83
2023/09/04 09:17:08;;;;;;;6.70;3.35;;;15.30;99.90;;;;;;5039246;28;20206;-84
2023/09/04 09:19:37;;;;;;;7.03;3.65;;;15.40;99.90;;;;;;5028897;28;20675;-83
2023/09/04 09:22:15;;;;;;;7.90;3.67;;;15.40;99.90;;;;;;5033124;28;20194;-84
2023/09/04 09:24:55;;;;;;;5.53;4.20;;;15.40;99.90;;;;;;5039197;28;20200;-84
2023/09/04 09:27:25;;;;;;;7.18;4.55;;;15.60;99.90;;;;;;5032791;28;20186;-84
2023/09/04 09:29:57;;;;;;;4.95;3.75;;;15.60;99.90;;;;;;5041893;28;20204;-83
2023/09/04 09:32:28;;;;;;;8.90;4.13;;;15.60;99.90;;;;;;5038530;28;20189;-84
2023/09/04 09:34:58;;;;;;;5.70;3.53;;;15.50;99.90;;;;;;5039052;28;20674;-84
2023/09/04 09:37:29;;;;;;;10.07;4.00;;;15.50;99.90;;;;;;5032923;28;20222;-84
2023/09/04 09:39:57;;;;;;;4.88;3.80;;;15.60;99.90;;;;;;5038754;28;20619;-83
2023/09/04 09:42:25;;;;;;;5.93;4.22;;;15.70;99.90;;;;;;5029358;28;20247;-83
2023/09/04 09:44:53;;;;;;;10.00;4.45;;;15.80;99.90;;;;;;5040533;28;20766;-83
2023/09/04 09:47:21;;;;;;;6.35;4.50;;;15.60;99.90;;;;;;5040537;28;20284;-83
2023/09/04 09:49:49;;;;;;;7.05;4.43;;;15.60;99.90;;;;;;5039862;27;20648;-83
2023/09/04 09:52:17;;;;;;;9.15;4.25;;;15.70;99.90;;;;;;5038091;28;20186;-83
2023/09/04 09:54:46;;;;;;;6.65;3.70;;;15.80;99.90;;;;;;5037355;28;20246;-83
2023/09/04 09:57:18;;;;;;;6.13;3.70;;;15.90;99.90;;;;;;5038905;27;20185;-83
2023/09/04 09:59:50;;;;;;;4.63;3.28;;;15.90;99.90;;;;;;5035991;28;20178;-84
2023/09/04 10:02:22;;;;;;;5.40;3.22;;;15.90;99.90;;;;;;5036579;28;20235;-83
2023/09/04 10:04:51;;;;;;;5.13;3.45;;;15.80;99.90;;;;;;5034239;28;20288;-83
2023/09/04 10:07:24;;;;;;;6.47;3.20;;;15.80;99.90;;;;;;5044581;28;20177;-84
2023/09/04 10:10:18;;;;;;;16.17;3.65;;;15.70;99.90;;;;;;5040871;28;20189;-83
2023/09/04 10:13:05;;;;;;;3.97;3.17;;;15.50;99.90;;;;;;5040519;27;20224;-84
2023/09/04 10:15:36;;;;;;;6.55;2.90;;;15.60;99.90;;;;;;5040560;28;20945;-83
2023/09/04 10:18:17;;;;;;;5.95;3.40;;;15.60;99.90;;;;;;5040000;28;20173;-83
2023/09/04 10:20:46;;;;;;;5.80;3.13;;;15.80;99.90;;;;;;5039938;28;20204;-84
2023/09/04 10:23:16;;;;;;;5.10;3.30;;;15.80;99.90;;;;;;5038707;27;20188;-83
2023/09/04 10:26:07;;;;;;;4.18;2.40;;;16.00;99.90;;;;;;5037750;28;20186;-84
2023/09/04 10:28:48;;;;;;;5.82;2.60;;;16.20;99.90;;;;;;5030899;28;20193;-84
2023/09/04 10:31:17;;;;;;;3.10;2.20;;;16.30;99.90;;;;;;5035429;28;20197;-85
2023/09/04 10:33:45;;;;;;;3.65;1.98;;;16.40;99.90;;;;;;5028358;28;20190;-83
2023/09/04 10:36:13;;;;;;;4.40;2.42;;;16.60;99.90;;;;;;5030273;28;20194;-84
2023/09/04 10:38:41;;;;;;;4.45;2.30;;;16.80;99.90;;;;;;5031007;28;20301;-84
2023/09/04 10:41:14;;;;;;;3.10;2.20;;;16.80;99.90;;;;;;5032789;28;20210;-84
2023/09/04 10:43:42;;;;;;;6.05;2.30;;;16.90;99.90;;;;;;5031979;28;20204;-84
2023/09/04 10:46:12;;;;;;;3.05;1.85;;;16.90;99.90;;;;;;5037401;28;20218;-85
2023/09/04 10:48:51;;;;;;;2.20;1.80;;;16.80;99.90;;;;;;5038524;28;20182;-84
2023/09/04 10:51:36;;;;;;;4.45;2.28;;;17.00;99.90;;;;;;5038755;28;20727;-84
2023/09/04 10:54:26;;;;;;;3.00;1.80;;;17.20;99.90;;;;;;5038279;28;20188;-83
2023/09/04 10:56:56;;;;;;;2.75;1.70;;;17.70;99.90;;;;;;5043312;28;20735;-82
2023/09/04 10:59:25;;;;;;;2.20;1.65;;;17.60;99.90;;;;;;5042384;28;20195;-83
2023/09/04 11:01:53;;;;;;;2.97;2.08;;;17.60;99.90;;;;;;5040687;28;20206;-84
2023/09/04 11:04:31;;;;;;;3.25;1.90;;;17.80;99.90;;;;;;5033584;28;20754;-84
2023/09/04 11:07:21;;;;;;;4.03;2.20;;;17.80;99.90;;;;;;5028022;28;20221;-83
2023/09/04 11:09:53;;;;;;;4.55;1.77;;;18.00;99.90;;;;;;5037268;28;20189;-83
2023/09/04 11:12:22;;;;;;;3.53;1.85;;;17.80;99.90;;;;;;5038334;28;20655;-83
2023/09/04 11:14:55;;;;;;;4.22;2.25;;;17.80;99.90;;;;;;5038918;28;20303;-83
2023/09/04 11:17:31;;;;;;;2.60;2.00;;;18.00;99.90;;;;;;5036732;28;20285;-84
2023/09/04 11:19:59;;;;;;;2.95;1.83;;;18.00;99.90;;;;;;5039134;28;20193;-84
2023/09/04 11:22:26;;;;;;;4.10;2.05;;;18.00;99.90;;;;;;5036834;28;20182;-84
2023/09/04 11:24:54;;;;;;;3.47;1.80;;;18.00;99.90;;;;;;5031639;28;20189;-83
2023/09/04 11:27:25;;;;;;;4.78;1.80;;;18.20;99.90;;;;;;5084252;27;20666;-82
2023/09/04 11:29:54;;;;;;;3.28;1.95;;;18.00;99.90;;;;;;5035917;28;20181;-83
2023/09/04 11:32:22;;;;;;;5.20;1.90;;;18.00;99.90;;;;;;5041084;28;20193;-83
2023/09/04 11:34:50;;;;;;;2.92;1.90;;;18.10;99.90;;;;;;5036666;28;20671;-83
2023/09/04 11:37:17;;;;;;;3.05;1.73;;;18.30;99.90;;;;;;5032945;28;20189;-83
2023/09/04 11:39:52;;;;;;;3.40;1.92;;;18.40;99.90;;;;;;5032149;28;20198;-83
2023/09/04 11:42:27;;;;;;;2.92;2.08;;;18.50;99.90;;;;;;5032105;28;20198;-84
2023/09/04 11:44:54;;;;;;;3.67;2.15;;;18.50;99.90;;;;;;5028233;28;20655;-83
2023/09/04 11:47:22;;;;;;;2.17;1.83;;;18.50;99.90;;;;;;5022436;28;20197;-84
2023/09/04 11:49:50;;;;;;;2.92;1.80;;;18.30;99.90;;;;;;5040519;28;20209;-83
2023/09/04 11:52:18;;;;;;;2.60;2.00;;;18.60;99.90;;;;;;5036876;28;20194;-84
2023/09/04 11:54:46;;;;;;;4.18;2.05;;;18.60;99.90;;;;;;5035113;28;20305;-84
2023/09/04 11:57:13;;;;;;;3.42;2.10;;;18.80;99.90;;;;;;5040765;28;20272;-83
2023/09/04 11:59:42;;;;;;;3.60;2.00;;;18.80;99.90;;;;;;5033347;28;20185;-84
2023/09/04 12:02:10;;;;;;;3.97;2.20;;;19.10;99.90;;;;;;5039135;28;20288;-83
2023/09/04 12:04:38;;;;;;;4.50;2.20;;;19.20;99.90;;;;;;5040435;28;20585;-84
2023/09/04 12:07:08;;;;;;;3.40;2.17;;;19.30;99.90;;;;;;5032506;28;20182;-84
2023/09/04 12:09:36;;;;;;;4.28;2.22;;;19.50;99.90;;;;;;5034455;28;20189;-84
2023/09/04 12:12:04;;;;;;;3.97;1.95;;;19.40;99.90;;;;;;5030639;28;20198;-84
2023/09/04 12:14:32;;;;;;;7.10;2.17;;;19.60;99.90;;;;;;5038264;28;20705;-84
2023/09/04 12:16:59;;;;;;;5.22;2.17;;;19.70;99.90;;;;;;5038492;28;20846;-84
2023/09/04 12:19:27;;;;;;;2.65;1.88;;;19.50;99.90;;;;;;5036114;28;20321;-84
2023/09/04 12:22:15;;;;;;;3.97;1.65;;;19.40;99.90;;;;;;5035816;28;20205;-84
2023/09/04 12:25:06;;;;;;;4.70;2.22;;;19.50;99.90;;;;;;5036070;27;20579;-84
2023/09/04 12:27:35;;;;;;;2.83;2.00;;;19.70;99.90;;;;;;5036698;28;20186;-83
2023/09/04 12:30:04;;;;;;;2.63;1.80;;;19.90;99.90;;;;;;5029894;28;20246;-83
2023/09/04 12:32:34;;;;;;;2.83;1.95;;;20.00;99.90;;;;;;5042529;28;20201;-83
2023/09/04 12:35:04;;;;;;;4.63;2.25;;;19.80;99.90;;;;;;5036239;28;20216;-83
2023/09/04 12:37:35;;;;;;;3.80;2.10;;;19.60;99.90;;;;;;5030945;28;20187;-83
2023/09/04 12:40:04;;;;;;;2.60;2.00;;;19.40;99.90;;;;;;5037831;28;20232;-83
2023/09/04 12:42:32;;;;;;;2.70;1.88;;;19.20;99.90;;;;;;5032131;28;20206;-84
2023/09/04 12:44:59;;;;;;;2.88;1.73;;;19.60;99.90;;;;;;5031734;28;20593;-83
2023/09/04 12:47:27;;;;;;;2.80;1.83;;;19.60;99.90;;;;;;5026393;28;20186;-83
2023/09/04 12:49:54;;;;;;;4.15;2.10;;;19.30;99.90;;;;;;5037501;28;20562;-83
2023/09/04 12:52:22;;;;;;;2.47;1.88;;;19.20;99.90;;;;;;5035876;28;20201;-83
2023/09/04 12:54:49;;;;;;;2.85;2.08;;;19.20;99.90;;;;;;5032928;28;20733;-83
2023/09/04 12:57:17;;;;;;;3.72;1.90;;;19.60;99.90;;;;;;5036340;28;20197;-84